Messwerte Borden

Temperatur

Temperatur
°C
1619002800 7.00 7.00 -2
1619006400 8.00 8.00 -2
1619010000 9.00 9.00 -1
1619013600 10.00 10.00
1619017200 11.00 11.00 0
1619020800 12.00 12.00
1619024400 13.00 13.00
1619028000 14.00 14.00 0
1619031600 15.00 15.00 1
1619035200 16.00 16.00 1
1619038800 17.00 17.00 0
1619042400 18.00 18.00
1619046000 19.00 19.00 -1
1619049600 20.00 20.00 -1
1619053200 21.00 21.00 -1
1619056800 22.00 22.00
1619060400 23.00 23.00 -2
1619064000 0.00 0.00 -1
1619067600 1.00 1.00 -1
1619071200 2.00 2.00 -1
1619074800 3.00 3.00 -2
1619078400 4.00 4.00 -3
1619082000 5.00 5.00
1619085600 6.00 6.00 -2

Aktuellste Messwerte

Wettercharakter
Wetter: bedeckt, etwas Schnee
Temperatur
-2 °C
Feuchtigkeit
90 %
Wind
15 km/hWindrichtung: Nordwest
Luftdruck
1012 hPa
Messzeit: 22. April 2021, 6.00Datenquelle: METAR

Weitere Messstationen in der Nähe

Messstation Temperatur Entfernung
Egbert Cs -2 °C 11 km
Collingwood 1 °C 37 km
Lagoon City -1 °C 64 km
Toronto -2 °C 69 km
Mount Forest -3 °C 73 km
Toronto 0 °C 77 km
Toronto 0 °C 82 km

Wind

Windrichtung Böen Mittelwind
° km/h km/h
1619002800 7.00 6.00 - 7.00 360° 10
1619006400 8.00 7.00 - 8.00 350° 10
1619010000 9.00 8.00 - 9.00 340° 15
1619013600 10.00 9.00 - 10.00
1619017200 11.00 10.00 - 11.00 340° 45 25
1619020800 12.00 11.00 - 12.00
1619024400 13.00 12.00 - 13.00
1619028000 14.00 13.00 - 14.00 330° 45 30
1619031600 15.00 14.00 - 15.00 320° 40 25
1619035200 16.00 15.00 - 16.00 330° 40 20
1619038800 17.00 16.00 - 17.00 330° 40 30
1619042400 18.00 17.00 - 18.00
1619046000 19.00 18.00 - 19.00 310° 30 20
1619049600 20.00 19.00 - 20.00 330° 10
1619053200 21.00 20.00 - 21.00 290° 10
1619056800 22.00 21.00 - 22.00
1619060400 23.00 22.00 - 23.00 280° 10
1619064000 0.00 23.00 - 0.00 280° 10
1619067600 1.00 0.00 - 1.00 280° 10
1619071200 2.00 1.00 - 2.00 280° 10
1619074800 3.00 2.00 - 3.00 280° 10
1619078400 4.00 3.00 - 4.00 270° 5
1619082000 5.00 4.00 - 5.00
1619085600 6.00 5.00 - 6.00 320° 20

Ihre Wetterstation

Fehlt Ihre Wetterstation auf unserem Portal?

Schreiben Sie an network@meteonews.ch

Klima

Wann ist es am wärmsten? Wann regnet es am wenigsten? Unsere Klimadaten geben Auskunft.